Hlavní strana
METAR-TAF:

METAR-TAF

Letiště :

Valencie, Španělsko

zeměpisná šířka: 39-37-26N, zeměpisná délka: 0-28-26W, výška: 127 m

Aktuální stav počasí

Zpráva byla vytvořena před 23 minutami, v 09:30 UTC
Bezvětří
Teplota 16°C
Vlhkost vzduchu 68%
Tlak 1023 hPa
Viditelnost 10 km a více
Žádná oblačnost pod 1500 m, nevyskytují se cumulonimby.

METAR: LEBT 100930Z AUTO 00000KT CAVOK 16/10 Q1023

Čas: 11:53 (09:53 UTC)


TAF: chybějící

Stav a předpovědi počasí z více než 4 000 letišť (zprávy METAR a TAF).

Červené a žluté tečky na mapě představují dostupné meteorologické stanice.

Když kurzor umístíte na tečku, zobrazí se název stanice.

Pak kliknutím zobrazíte stav a předpověď počasí.

Chcete-li změnit mapu, kliknutím na zelené tlačítko se znaménkem +mapu přiblížíte, kliknutím na zelené tlačítko se znaménkem – mapu oddálíte a kliknutím na zelené šipky přejdete na sousední mapy.


METAR-TAF: